createdAt,value
2023-04-09T00:00:15.731Z,110.83
2023-04-09T00:02:45.465Z,120.33
2023-04-09T00:05:17.744Z,128.57
2023-04-09T00:07:47.503Z,140.43
2023-04-09T00:10:17.043Z,138.57
2023-04-09T00:12:46.875Z,142.90
2023-04-09T00:15:27.756Z,130.57
2023-04-09T00:18:00.848Z,144.23
2023-04-09T00:20:32.984Z,137.70
2023-04-09T00:23:02.502Z,126.90
2023-04-09T00:25:32.113Z,183.90
2023-04-09T00:28:01.871Z,195.47
2023-04-09T00:30:31.858Z,153.13
2023-04-09T00:33:01.785Z,177.43
2023-04-09T00:35:33.960Z,139.67
2023-04-09T00:38:03.491Z,131.70
2023-04-09T00:40:33.237Z,140.80
2023-04-09T00:43:03.099Z,133.40
2023-04-09T00:45:33.120Z,136.40
2023-04-09T00:48:02.748Z,127.73
2023-04-09T00:50:34.844Z,132.07
2023-04-09T00:53:04.335Z,135.03
2023-04-09T00:55:34.470Z,142.40
2023-04-09T00:58:04.095Z,128.53
2023-04-09T01:00:33.768Z,136.63
2023-04-09T01:03:03.629Z,119.90
2023-04-09T01:05:42.045Z,126.63
2023-04-09T01:08:17.386Z,120.93
2023-04-09T01:10:50.741Z,115.53
2023-04-09T01:13:23.241Z,107.50
2023-04-09T01:15:57.171Z,97.37
2023-04-09T01:18:32.465Z,99.73
2023-04-09T01:21:08.314Z,93.30
2023-04-09T01:23:50.692Z,101.83
2023-04-09T01:26:28.867Z,90.77
2023-04-09T01:29:02.167Z,98.97
2023-04-09T01:31:33.964Z,96.70
2023-04-09T01:34:04.174Z,93.47
2023-04-09T01:36:34.827Z,108.37
2023-04-09T01:39:05.256Z,104.90
2023-04-09T01:41:36.606Z,100.57
2023-04-09T01:44:08.930Z,115.03
2023-04-09T01:46:39.739Z,106.27
2023-04-09T01:49:12.524Z,115.87
2023-04-09T01:51:42.134Z,116.00
2023-04-09T01:54:11.891Z,109.13
2023-04-09T01:56:45.488Z,110.83
2023-04-09T01:59:18.028Z,120.23
2023-04-09T02:01:49.826Z,118.63
2023-04-09T02:04:24.534Z,111.43
2023-04-09T02:06:58.906Z,115.30
2023-04-09T02:09:30.670Z,110.60
2023-04-09T02:12:01.883Z,129.30
2023-04-09T02:14:35.274Z,120.30
2023-04-09T02:17:05.090Z,107.27
2023-04-09T02:19:44.903Z,119.30
2023-04-09T02:22:14.978Z,113.23
2023-04-09T02:24:44.516Z,130.73
2023-04-09T02:27:14.089Z,115.47
2023-04-09T02:29:46.214Z,114.50
2023-04-09T02:32:15.684Z,130.23
2023-04-09T02:34:46.015Z,119.67
2023-04-09T02:37:15.529Z,115.17
2023-04-09T02:39:45.044Z,120.13
2023-04-09T02:42:14.541Z,120.73
2023-04-09T02:44:47.108Z,120.57
2023-04-09T02:47:16.626Z,130.77
2023-04-09T02:49:46.186Z,143.60
2023-04-09T02:52:15.739Z,123.80
2023-04-09T02:54:45.281Z,130.90
2023-04-09T02:57:14.791Z,117.23
2023-04-09T02:59:47.819Z,127.73
2023-04-09T03:02:17.587Z,117.93
2023-04-09T03:04:47.195Z,133.30
2023-04-09T03:07:16.658Z,136.67
2023-04-09T03:09:46.192Z,125.50
2023-04-09T03:12:15.707Z,126.23
2023-04-09T03:14:47.822Z,115.23
2023-04-09T03:17:17.360Z,123.43
2023-04-09T03:19:46.909Z,132.13
2023-04-09T03:22:16.382Z,111.73
2023-04-09T03:24:45.897Z,131.20
2023-04-09T03:27:15.443Z,136.93
2023-04-09T03:29:47.539Z,127.93
2023-04-09T03:32:18.977Z,144.13
2023-04-09T03:34:48.708Z,131.43
2023-04-09T03:37:18.296Z,148.93
2023-04-09T03:39:47.780Z,137.03
2023-04-09T03:42:17.246Z,134.20
2023-04-09T03:44:49.347Z,152.73
2023-04-09T03:47:18.831Z,148.30
2023-04-09T03:49:48.408Z,149.13
2023-04-09T03:52:17.926Z,127.50
2023-04-09T03:54:47.443Z,152.50
2023-04-09T03:57:17.098Z,113.37
2023-04-09T03:59:49.188Z,121.43
2023-04-09T04:02:18.714Z,127.63
2023-04-09T04:04:48.765Z,138.00
2023-04-09T04:07:18.285Z,137.63
2023-04-09T04:09:47.812Z,136.03
2023-04-09T04:12:17.330Z,130.77
2023-04-09T04:14:49.396Z,125.67
2023-04-09T04:17:18.906Z,130.33
2023-04-09T04:19:48.434Z,118.33
2023-04-09T04:22:17.932Z,128.60
2023-04-09T04:24:47.452Z,126.80
2023-04-09T04:27:16.968Z,119.03
2023-04-09T04:29:49.083Z,124.20
2023-04-09T04:32:18.623Z,135.40
2023-04-09T04:34:51.787Z,129.60
2023-04-09T04:37:21.305Z,130.03
2023-04-09T04:39:50.838Z,120.87
2023-04-09T04:42:20.741Z,99.27
2023-04-09T04:44:52.862Z,119.90
2023-04-09T04:47:22.474Z,112.80
2023-04-09T04:49:52.057Z,120.97
2023-04-09T04:52:21.645Z,107.83
2023-04-09T04:54:51.168Z,96.17
2023-04-09T04:57:20.621Z,116.33
2023-04-09T04:59:52.722Z,106.37
2023-04-09T05:02:22.330Z,110.77
2023-04-09T05:04:51.934Z,107.57
2023-04-09T05:07:21.409Z,114.00
2023-04-09T05:09:50.946Z,115.90
2023-04-09T05:12:20.660Z,117.60
2023-04-09T05:14:52.750Z,105.83
2023-04-09T05:17:22.352Z,114.23
2023-04-09T05:19:54.428Z,112.37
2023-04-09T05:22:23.937Z,120.30
2023-04-09T05:24:53.908Z,110.77
2023-04-09T05:27:25.925Z,98.97
2023-04-09T05:30:00.672Z,96.60
2023-04-09T05:32:30.626Z,100.10
2023-04-09T05:35:00.235Z,91.10
2023-04-09T05:37:29.725Z,101.43
2023-04-09T05:39:59.391Z,94.93
2023-04-09T05:42:28.871Z,90.43
2023-04-09T05:45:00.945Z,92.77
2023-04-09T05:47:30.458Z,88.50
2023-04-09T05:50:00.102Z,82.87
2023-04-09T05:52:29.727Z,81.53
2023-04-09T05:54:59.211Z,82.43
2023-04-09T05:57:30.586Z,79.20
2023-04-09T06:00:02.648Z,89.13
2023-04-09T06:02:32.274Z,85.60
2023-04-09T06:05:04.543Z,95.90
2023-04-09T06:07:34.080Z,75.13
2023-04-09T06:10:03.716Z,83.00
2023-04-09T06:12:33.237Z,75.23
2023-04-09T06:15:06.115Z,80.80
2023-04-09T06:17:35.771Z,75.93
2023-04-09T06:20:05.653Z,84.53
2023-04-09T06:22:35.256Z,75.37
2023-04-09T06:25:04.812Z,86.43
2023-04-09T06:27:34.324Z,84.33
2023-04-09T06:30:07.010Z,95.97
2023-04-09T06:32:46.883Z,99.37
2023-04-09T06:35:16.888Z,95.23
2023-04-09T06:37:46.447Z,85.20
2023-04-09T06:40:18.762Z,88.30
2023-04-09T06:42:49.148Z,84.97
2023-04-09T06:45:21.297Z,76.53
2023-04-09T06:47:50.819Z,70.37
2023-04-09T06:50:21.020Z,84.00
2023-04-09T06:52:50.516Z,79.40
2023-04-09T06:55:20.256Z,79.30
2023-04-09T06:57:49.740Z,76.77
2023-04-09T07:00:23.167Z,77.20
2023-04-09T07:02:53.615Z,86.77
2023-04-09T07:05:23.325Z,80.00
2023-04-09T07:07:52.853Z,72.83
2023-04-09T07:10:22.346Z,85.27
2023-04-09T07:12:51.926Z,71.33
2023-04-09T07:15:23.978Z,73.43
2023-04-09T07:17:53.592Z,73.17
2023-04-09T07:20:23.188Z,77.07
2023-04-09T07:22:52.794Z,78.37
2023-04-09T07:25:23.014Z,76.40
2023-04-09T07:27:52.548Z,83.03
2023-04-09T07:30:24.655Z,90.77
2023-04-09T07:32:54.567Z,82.97
2023-04-09T07:35:24.371Z,82.83
2023-04-09T07:37:54.062Z,77.43
2023-04-09T07:40:23.576Z,78.90
2023-04-09T07:42:54.007Z,74.57
2023-04-09T07:45:26.149Z,71.80
2023-04-09T07:47:55.676Z,63.90
2023-04-09T07:50:25.616Z,73.17
2023-04-09T07:52:55.183Z,58.50
2023-04-09T07:55:24.671Z,64.10
2023-04-09T07:57:54.849Z,64.43
2023-04-09T08:00:27.075Z,65.73
2023-04-09T08:02:57.677Z,67.53
2023-04-09T08:05:28.462Z,66.37
2023-04-09T08:07:57.934Z,53.37
2023-04-09T08:10:27.482Z,52.40
2023-04-09T08:12:56.988Z,56.13
2023-04-09T08:15:29.180Z,58.70
2023-04-09T08:17:58.674Z,49.53
2023-04-09T08:20:29.487Z,50.43
2023-04-09T08:22:59.373Z,52.57
2023-04-09T08:25:29.114Z,50.93
2023-04-09T08:27:58.589Z,47.70
2023-04-09T08:30:30.829Z,51.30
2023-04-09T08:33:00.422Z,48.93
2023-04-09T08:35:30.955Z,52.07
2023-04-09T08:38:01.824Z,52.17
2023-04-09T08:40:31.308Z,44.70
2023-04-09T08:43:02.128Z,51.50
2023-04-09T08:45:34.250Z,48.20
2023-04-09T08:48:05.665Z,44.90
2023-04-09T08:50:35.468Z,49.70
2023-04-09T08:53:06.214Z,47.03
2023-04-09T08:55:37.507Z,45.83
2023-04-09T08:58:07.765Z,44.50
2023-04-09T09:00:40.829Z,45.83
2023-04-09T09:03:13.222Z,42.77
2023-04-09T09:05:44.397Z,45.37
2023-04-09T09:08:14.954Z,44.47
2023-04-09T09:10:46.123Z,45.27
2023-04-09T09:13:23.731Z,41.13
2023-04-09T09:15:57.627Z,41.83
2023-04-09T09:18:41.252Z,39.00
2023-04-09T09:21:14.695Z,42.30
2023-04-09T09:23:44.724Z,41.40
2023-04-09T09:26:16.589Z,41.40
2023-04-09T09:28:47.023Z,39.93
2023-04-09T09:31:20.610Z,42.07
2023-04-09T09:33:51.338Z,44.90
2023-04-09T09:36:34.458Z,53.17
2023-04-09T09:39:10.334Z,40.57
2023-04-09T09:41:40.247Z,60.00
2023-04-09T09:44:10.159Z,92.50
2023-04-09T09:46:43.358Z,46.67
2023-04-09T09:49:12.808Z,61.17
2023-04-09T09:51:42.848Z,43.00
2023-04-09T09:54:13.649Z,49.33
2023-04-09T09:56:44.146Z,46.20
2023-04-09T09:59:17.911Z,47.50
2023-04-09T10:01:51.256Z,44.53
2023-04-09T10:04:23.092Z,50.00
2023-04-09T10:06:53.674Z,41.97
2023-04-09T10:09:24.332Z,52.43
2023-04-09T10:11:53.996Z,54.87
2023-04-09T10:14:24.516Z,50.67
2023-04-09T10:16:56.784Z,50.87
2023-04-09T10:19:27.272Z,54.17
2023-04-09T10:22:00.553Z,55.77
2023-04-09T10:24:30.125Z,41.20
2023-04-09T10:27:16.467Z,41.37
2023-04-09T10:29:47.885Z,42.80
2023-04-09T10:32:26.705Z,71.67
2023-04-09T10:35:00.847Z,41.57
2023-04-09T10:37:30.998Z,39.70
2023-04-09T10:40:00.907Z,41.30
2023-04-09T10:42:34.244Z,67.10
2023-04-09T10:45:14.399Z,47.83
2023-04-09T10:47:48.602Z,42.23
2023-04-09T10:50:20.291Z,43.27
2023-04-09T10:52:50.346Z,59.97
2023-04-09T10:55:44.580Z,43.53
2023-04-09T10:58:14.792Z,115.97
2023-04-09T11:00:45.502Z,45.80
2023-04-09T11:03:30.621Z,41.63
2023-04-09T11:06:06.253Z,59.57
2023-04-09T11:08:36.724Z,40.93
2023-04-09T11:11:06.317Z,53.37
2023-04-09T11:13:36.235Z,41.50
2023-04-09T11:16:07.441Z,44.03
2023-04-09T11:18:39.746Z,119.17
2023-04-09T11:21:10.365Z,41.57
2023-04-09T11:23:39.865Z,44.30
2023-04-09T11:26:12.395Z,42.63
2023-04-09T11:28:44.056Z,41.90
2023-04-09T11:31:13.631Z,41.77
2023-04-09T11:33:48.846Z,41.67
2023-04-09T11:36:18.341Z,47.00
2023-04-09T11:38:51.313Z,41.93
2023-04-09T11:41:21.184Z,38.77
2023-04-09T11:43:50.827Z,40.87
2023-04-09T11:46:21.656Z,46.73
2023-04-09T11:48:53.935Z,45.90
2023-04-09T11:51:23.729Z,43.40
2023-04-09T11:53:53.345Z,44.20
2023-04-09T11:56:23.366Z,48.27
2023-04-09T11:58:53.044Z,37.40
2023-04-09T12:01:25.055Z,39.23
2023-04-09T12:03:58.721Z,46.13
2023-04-09T12:06:29.925Z,51.73
2023-04-09T12:09:00.215Z,37.03
2023-04-09T12:11:32.039Z,62.90
2023-04-09T12:14:02.972Z,35.20
2023-04-09T12:16:34.155Z,40.67
2023-04-09T12:19:07.149Z,37.90
2023-04-09T12:21:49.840Z,41.83
2023-04-09T12:24:20.239Z,43.17
2023-04-09T12:26:50.524Z,44.80
2023-04-09T12:29:21.136Z,39.43
2023-04-09T12:31:50.960Z,39.43
2023-04-09T12:34:23.051Z,37.37
2023-04-09T12:36:52.593Z,39.73
2023-04-09T12:39:22.062Z,38.43
2023-04-09T12:41:51.538Z,54.60
2023-04-09T12:44:21.035Z,47.63
2023-04-09T12:46:51.142Z,44.27
2023-04-09T12:49:23.268Z,41.37
2023-04-09T12:51:52.795Z,34.63
2023-04-09T12:54:22.341Z,45.87
2023-04-09T12:56:51.933Z,35.87
2023-04-09T12:59:21.449Z,38.80
2023-04-09T13:01:50.999Z,38.87
2023-04-09T13:04:23.228Z,45.00
2023-04-09T13:06:53.143Z,40.10
2023-04-09T13:09:22.684Z,34.13
2023-04-09T13:11:52.243Z,40.27
2023-04-09T13:14:21.797Z,49.57
2023-04-09T13:16:52.755Z,49.30
2023-04-09T13:19:25.043Z,38.50
2023-04-09T13:21:54.687Z,36.77
2023-04-09T13:24:24.234Z,43.83
2023-04-09T13:26:54.161Z,40.10
2023-04-09T13:29:23.675Z,34.67
2023-04-09T13:31:53.229Z,32.50
2023-04-09T13:34:25.455Z,37.23
2023-04-09T13:36:55.121Z,30.07
2023-04-09T13:39:24.607Z,29.13
2023-04-09T13:41:55.382Z,29.63
2023-04-09T13:44:25.145Z,35.93
2023-04-09T13:46:54.621Z,29.60
2023-04-09T13:49:27.440Z,35.20
2023-04-09T13:51:56.960Z,32.83
2023-04-09T13:54:26.501Z,35.43
2023-04-09T13:56:56.223Z,46.83
2023-04-09T13:59:25.755Z,37.13
2023-04-09T14:01:55.409Z,39.70
2023-04-09T14:04:27.835Z,40.43
2023-04-09T14:06:57.586Z,36.27
2023-04-09T14:09:27.151Z,38.00
2023-04-09T14:11:57.538Z,43.77
2023-04-09T14:14:27.110Z,41.20
2023-04-09T14:16:56.678Z,37.03
2023-04-09T14:19:28.823Z,35.93
2023-04-09T14:21:58.556Z,32.90
2023-04-09T14:24:28.137Z,34.43
2023-04-09T14:26:57.767Z,37.07
2023-04-09T14:29:27.415Z,35.80
2023-04-09T14:31:57.382Z,35.80
2023-04-09T14:34:29.575Z,37.33
2023-04-09T14:36:59.160Z,34.50
2023-04-09T14:39:28.702Z,34.20
2023-04-09T14:41:58.239Z,42.37
2023-04-09T14:44:28.234Z,33.17
2023-04-09T14:46:58.013Z,35.57
2023-04-09T14:49:30.296Z,36.10
2023-04-09T14:51:59.842Z,38.23
2023-04-09T14:54:31.439Z,32.07
2023-04-09T14:57:02.790Z,36.60
2023-04-09T14:59:32.352Z,35.90
2023-04-09T15:02:02.106Z,36.83
2023-04-09T15:04:34.424Z,39.57
2023-04-09T15:07:03.979Z,40.40
2023-04-09T15:09:33.480Z,66.03
2023-04-09T15:12:03.500Z,93.87
2023-04-09T15:14:33.717Z,49.87
2023-04-09T15:17:03.599Z,71.80
2023-04-09T15:19:36.262Z,67.23
2023-04-09T15:22:05.970Z,47.60
2023-04-09T15:24:35.493Z,47.53
2023-04-09T15:27:04.987Z,54.83
2023-04-09T15:29:35.431Z,39.73
2023-04-09T15:32:05.113Z,47.87
2023-04-09T15:34:37.330Z,38.53
2023-04-09T15:37:06.882Z,43.70
2023-04-09T15:39:36.883Z,43.93
2023-04-09T15:42:08.764Z,37.93
2023-04-09T15:44:39.552Z,65.07
2023-04-09T15:47:09.182Z,45.83
2023-04-09T15:49:41.383Z,83.37
2023-04-09T15:52:10.982Z,56.50
2023-04-09T15:54:40.572Z,67.50
2023-04-09T15:57:10.093Z,37.47
2023-04-09T15:59:39.679Z,43.90
2023-04-09T16:02:09.252Z,51.87
2023-04-09T16:04:41.459Z,38.90
2023-04-09T16:07:11.119Z,35.90
2023-04-09T16:09:40.624Z,37.03
2023-04-09T16:12:10.113Z,39.53
2023-04-09T16:14:40.490Z,41.37
2023-04-09T16:17:10.387Z,37.07
2023-04-09T16:19:42.603Z,35.47
2023-04-09T16:22:12.766Z,36.10
2023-04-09T16:24:42.297Z,45.90
2023-04-09T16:27:13.170Z,53.07
2023-04-09T16:29:42.685Z,41.13
2023-04-09T16:32:12.277Z,55.13
2023-04-09T16:34:44.393Z,67.23
2023-04-09T16:37:13.868Z,58.13
2023-04-09T16:39:43.398Z,92.83
2023-04-09T16:42:13.103Z,57.97
2023-04-09T16:44:42.645Z,49.10
2023-04-09T16:47:12.131Z,38.23
2023-04-09T16:49:44.264Z,45.13
2023-04-09T16:52:13.780Z,41.23
2023-04-09T16:54:43.374Z,46.40
2023-04-09T16:57:12.973Z,52.30
2023-04-09T16:59:43.212Z,53.20
2023-04-09T17:02:12.879Z,46.93
2023-04-09T17:04:45.009Z,45.47
2023-04-09T17:07:14.464Z,42.23
2023-04-09T17:09:43.951Z,71.67
2023-04-09T17:12:13.659Z,61.07
2023-04-09T17:14:44.522Z,46.80
2023-04-09T17:17:14.363Z,55.57
2023-04-09T17:19:46.523Z,54.13
2023-04-09T17:22:17.970Z,120.10
2023-04-09T17:24:47.708Z,63.63
2023-04-09T17:27:17.176Z,49.10
2023-04-09T17:29:46.769Z,48.17
2023-04-09T17:32:16.349Z,47.07
2023-04-09T17:34:49.731Z,44.37
2023-04-09T17:37:19.295Z,51.93
2023-04-09T17:39:48.846Z,45.93
2023-04-09T17:42:19.716Z,49.70
2023-04-09T17:44:49.239Z,43.20
2023-04-09T17:47:18.881Z,59.40
2023-04-09T17:49:50.958Z,43.17
2023-04-09T17:52:20.594Z,45.43
2023-04-09T17:54:51.066Z,46.27
2023-04-09T17:57:20.624Z,53.33
2023-04-09T17:59:50.133Z,50.33
2023-04-09T18:02:22.218Z,62.10
2023-04-09T18:04:55.024Z,55.63
2023-04-09T18:07:24.663Z,56.10
2023-04-09T18:09:54.145Z,42.83
2023-04-09T18:12:23.600Z,49.47
2023-04-09T18:14:53.222Z,59.97
2023-04-09T18:17:22.827Z,62.63
2023-04-09T18:19:58.486Z,54.13
2023-04-09T18:22:28.160Z,49.37
2023-04-09T18:24:57.850Z,46.97
2023-04-09T18:27:27.477Z,136.63
2023-04-09T18:29:57.046Z,59.90
2023-04-09T18:32:26.963Z,50.57
2023-04-09T18:34:59.111Z,46.47
2023-04-09T18:37:29.295Z,51.90
2023-04-09T18:40:00.646Z,71.50
2023-04-09T18:42:31.463Z,48.70
2023-04-09T18:45:01.000Z,67.73
2023-04-09T18:47:30.538Z,57.00
2023-04-09T18:50:02.707Z,55.87
2023-04-09T18:52:32.419Z,46.60
2023-04-09T18:55:01.960Z,47.00
2023-04-09T18:57:33.552Z,45.47
2023-04-09T19:00:04.076Z,46.93
2023-04-09T19:02:33.723Z,46.97
2023-04-09T19:05:07.320Z,48.37
2023-04-09T19:07:37.849Z,51.00
2023-04-09T19:10:08.013Z,47.60
2023-04-09T19:12:37.526Z,49.30
2023-04-09T19:15:07.605Z,72.50
2023-04-09T19:17:37.136Z,49.50
2023-04-09T19:20:10.695Z,44.53
2023-04-09T19:22:40.244Z,45.37
2023-04-09T19:25:10.925Z,48.50
2023-04-09T19:27:41.515Z,56.97
2023-04-09T19:30:11.961Z,66.33
2023-04-09T19:32:41.846Z,80.57
2023-04-09T19:35:14.053Z,43.50
2023-04-09T19:37:43.800Z,42.20
2023-04-09T19:40:15.661Z,48.57
2023-04-09T19:42:45.294Z,54.63
2023-04-09T19:45:15.478Z,87.37
2023-04-09T19:47:44.984Z,50.83
2023-04-09T19:50:17.360Z,61.87
2023-04-09T19:52:47.184Z,49.77
2023-04-09T19:55:16.770Z,44.43
2023-04-09T19:57:46.353Z,49.57
2023-04-09T20:00:17.411Z,49.30
2023-04-09T20:02:47.104Z,50.87
2023-04-09T20:05:21.133Z,47.87
2023-04-09T20:07:50.635Z,49.03
2023-04-09T20:10:20.628Z,94.77
2023-04-09T20:12:50.657Z,51.03
2023-04-09T20:15:20.977Z,43.33
2023-04-09T20:17:50.929Z,52.80
2023-04-09T20:20:23.092Z,47.57
2023-04-09T20:22:56.468Z,42.80
2023-04-09T20:25:27.981Z,52.50
2023-04-09T20:27:58.240Z,52.33
2023-04-09T20:30:27.758Z,115.97
2023-04-09T20:32:57.653Z,46.63
2023-04-09T20:35:29.814Z,45.07
2023-04-09T20:37:59.313Z,51.60
2023-04-09T20:40:30.791Z,48.10
2023-04-09T20:43:00.656Z,42.97
2023-04-09T20:45:30.205Z,45.90
2023-04-09T20:47:59.811Z,60.10
2023-04-09T20:50:32.869Z,56.83
2023-04-09T20:53:02.435Z,41.93
2023-04-09T20:55:32.535Z,43.83
2023-04-09T20:58:02.982Z,49.97
2023-04-09T21:00:32.496Z,56.73
2023-04-09T21:03:02.220Z,47.50
2023-04-09T21:05:34.902Z,52.80
2023-04-09T21:08:04.440Z,46.90
2023-04-09T21:10:33.943Z,46.50
2023-04-09T21:13:03.428Z,48.80
2023-04-09T21:15:32.954Z,40.13
2023-04-09T21:18:02.665Z,46.23
2023-04-09T21:20:37.163Z,50.87
2023-04-09T21:23:07.549Z,55.23
2023-04-09T21:25:37.288Z,41.90
2023-04-09T21:28:07.016Z,56.00
2023-04-09T21:30:37.653Z,71.93
2023-04-09T21:33:08.927Z,60.47
2023-04-09T21:35:41.687Z,47.73
2023-04-09T21:38:11.381Z,49.63
2023-04-09T21:40:40.929Z,53.53
2023-04-09T21:43:10.415Z,48.40
2023-04-09T21:45:40.330Z,47.47
2023-04-09T21:48:09.983Z,49.23
2023-04-09T21:50:42.095Z,46.27
2023-04-09T21:53:11.796Z,103.50
2023-04-09T21:55:41.324Z,54.00
2023-04-09T21:58:12.005Z,47.07
2023-04-09T22:00:41.550Z,81.67
2023-04-09T22:03:11.344Z,44.37
2023-04-09T22:05:43.556Z,45.77
2023-04-09T22:08:13.329Z,46.17
2023-04-09T22:10:42.929Z,47.03
2023-04-09T22:13:12.466Z,43.73
2023-04-09T22:15:42.154Z,43.40
2023-04-09T22:18:11.696Z,42.60
2023-04-09T22:20:43.814Z,55.47
2023-04-09T22:23:13.274Z,56.13
2023-04-09T22:25:42.831Z,45.03
2023-04-09T22:28:12.355Z,50.43
2023-04-09T22:30:42.750Z,45.43
2023-04-09T22:33:12.281Z,44.00
2023-04-09T22:35:44.358Z,41.97
2023-04-09T22:38:13.993Z,44.17
2023-04-09T22:40:43.467Z,44.13
2023-04-09T22:43:12.961Z,39.80
2023-04-09T22:45:42.496Z,42.57
2023-04-09T22:48:12.469Z,42.63
2023-04-09T22:50:44.551Z,45.60
2023-04-09T22:53:18.672Z,58.23
2023-04-09T22:55:51.228Z,42.73
2023-04-09T22:58:21.195Z,73.17
2023-04-09T23:00:51.041Z,44.93
2023-04-09T23:03:20.883Z,42.97
2023-04-09T23:05:53.162Z,52.40
2023-04-09T23:08:22.683Z,45.10
2023-04-09T23:10:52.173Z,45.90
2023-04-09T23:13:21.678Z,45.80
2023-04-09T23:15:51.222Z,45.77
2023-04-09T23:18:20.704Z,53.03
2023-04-09T23:20:52.809Z,56.40
2023-04-09T23:23:22.312Z,43.73
2023-04-09T23:25:51.794Z,43.40
2023-04-09T23:28:21.317Z,46.43
2023-04-09T23:30:51.272Z,75.40
2023-04-09T23:33:21.101Z,44.97
2023-04-09T23:35:53.251Z,47.13
2023-04-09T23:38:22.788Z,52.37
2023-04-09T23:40:52.453Z,50.20
2023-04-09T23:43:22.009Z,44.73
2023-04-09T23:45:51.586Z,59.50
2023-04-09T23:48:21.228Z,55.40
2023-04-09T23:50:53.287Z,67.87
2023-04-09T23:53:22.745Z,61.47
2023-04-09T23:55:52.818Z,56.40
2023-04-09T23:58:23.263Z,44.97
